ACT        NSW        VIC        QLD        SA        WA        TAS        NT        INFO        CALC            by VK5ZD

  Atmospheric Gas Attenuation - ITU Rec 676-11   --------------- db/100km ---------------
Station Date Time Temp RH % AH g/m3 Dew Point Wind Direction Speed kph Gust kph Barometer mB Rainfall Since 9am 24GHz 47GHz 76GHz 122GHz 134GHz 241GHz
Aireys Inlet 17 02:10 6.1 91 6.65 4.7 9 9 1013.1 0 15.7 24.9 35.5 92.9 81.2 277.1
Ararat 16 15:00 11.2 29 2.94 -6.1 11 1024 0 7.7 18.5 20.5 52.5 32.8 107.5
Avalon 17 02:00 1.2 100 5.27 1.2 11 13 1023.9 0 13.0 24.4 32.3 84.2 67.7 228.9
Bairnsdale 17 02:10 7.9 99 8.14 7.8 9 9 1023.6 1.4 18.9 27.3 41.4 108.5 100.6 345.2
Ballarat 17 02:10 -0.5 100 4.69 -0.5 6 6 1022.8 0 11.8 23.8 30.5 79.4 61.0 205.3
Ben Nevis 17 02:10 2 96 5.34 1.4 17 20 1013.1 0 13.1 23.8 31.8 83.1 67.3 227.8
Bendigo 17 02:10 4.5 90 5.92 3 15 17 1022 0 14.2 24.5 33.6 87.6 73.5 249.7
Cape Nelson 17 02:10 7.6 94 7.58 6.7 19 20 1023 0 17.7 26.4 39.1 102.4 93.0 318.7
Cape Otway 17 02:10 6.7 84 6.39 4.2 13 13 1023.9 0 15.2 24.7 34.6 90.4 77.8 265.2
Casterton 17 02:10 1.6 100 5.41 1.6 0 0 1022.3 0 13.2 24.4 32.7 85.2 69.2 234.2
Cerberus 17 02:10 2 90 5.01 0.5 0 0 1013.1 0 12.4 23.3 30.5 79.5 62.8 212.1
Charlton 17 02:10 0.1 100 4.89 0.1 6 7 1023.1 0 12.2 24.0 31.1 81.0 63.3 213.4
Coldstream 17 02:10 1 99 5.14 0.9 0 0 1023.5 0.2 12.7 24.2 31.8 82.9 66.0 223.1
Combienbar 17 02:10 5.5 96 6.75 4.9 9 11 1013.1 1.6 16.0 25.2 36.2 94.8 83.2 284.1
Dartmoor 17 02:10 3 98 5.83 2.7 2 2 1013.1 0 14.1 24.4 33.5 87.4 73.1 248.3
East Sale Airport 17 02:10 7.5 98 7.85 7.2 7 9 1023.6 0.8 18.3 26.9 40.4 105.7 97.0 332.6
Edenhope 17 02:10 5 93 6.32 3.9 7 9 1013.1 0.2 15.1 24.6 34.6 90.6 77.8 265.2
Eildon Fire Tower 17 02:10 4.7 74 4.93 0.4 11 13 1013.1 0 12.1 22.5 29.2 76.0 59.6 201.4
Essendon Airport 17 02:10 5.4 99 6.91 5.3 11 11 1023.5 0 16.3 25.9 37.4 97.7 86.3 294.8
Falls Creek 17 02:10 -3.1 98 3.83 -3.4 26 28 1019.6 1.4 10.0 22.9 27.8 72.1 50.9 169.5
Ferny Creek 17 02:10 5.4 96 6.7 4.8 11 17 1013.1 0 15.9 25.2 36.0 94.3 82.6 282.0
Frankston (Ballam Park) 17 02:10 5.3 95 6.59 4.5 0 0 1013.1 0 15.6 25.0 35.6 93.2 81.2 277.1
Gabo Island 17 02:10 12.4 69 7.54 7 33 37 1021.3 3.4 17.4 24.9 36.6 95.8 86.8 297.6
Geelong Racecourse 17 02:10 2.2 99 5.58 2 4 4 1013.1 0 13.6 24.2 32.8 85.5 70.4 238.7
Gelantipy 17 02:00 4.6 100 6.62 4.6 9 13 1022.6 3 15.7 25.6 36.5 95.4 83.0 283.3
Hamilton 17 02:10 3 89 5.3 1.4 13 15 1022.7 0 13.0 23.9 31.7 82.5 66.5 224.9
Hopetoun Airport 17 02:10 2.8 100 5.87 2.8 11 11 1013.1 0.2 14.2 24.5 33.7 88.1 73.8 250.8
Horsham 17 02:10 1.4 97 5.18 1 17 19 1022.9 0 12.7 24.1 31.8 82.9 66.2 223.8
Hunters Hill 17 02:10 1.7 96 5.23 1.1 2 4 1013.1 0 12.8 23.7 31.5 82.2 66.0 223.4
Kanagulk 17 02:10 0.5 99 4.97 0.4 0 0 1022.7 0 12.3 24.0 31.3 81.5 64.1 216.1
Kerang 16 15:00 13.1 56 6.39 4.6 6 1013.1 0 14.9 22.6 31.6 82.4 71.0 242.4
Kilmore Gap 17 02:10 4.5 100 6.58 4.5 9 11 1022.4 0.2 15.7 25.6 36.3 95.0 82.6 281.7
Kingfish B 16 22:50 11.9 80 8.47 8.6 17 22 1023.1 0 19.4 26.6 40.7 106.6 99.9 343.4
Kyabram 17 02:00 1.6 100 5.41 1.6 0 0 1013.1 0 13.2 24.1 32.3 84.3 68.6 232.3
Latrobe Valley 17 02:10 5.9 97 7 5.5 0 0 1023.9 0 16.5 26.0 37.5 98.2 87.0 297.4
Laverton 17 02:10 2.7 99 5.77 2.6 9 9 1023.8 0 14.0 24.8 33.8 88.1 73.2 248.6
Longerenong 17 02:10 3.6 85 5.27 1.3 7 9 1013.1 0 12.9 23.3 30.9 80.7 65.0 219.9
Mallacoota 17 02:10 8.7 86 7.44 6.5 9 9 1021.7 1.8 17.3 25.8 37.9 99.3 89.7 307.2
Mangalore 17 02:10 4.3 96 6.23 3.7 11 17 1022.5 0 14.9 25.1 35.0 91.3 77.9 265.3
Melbourne (Olympic Park) 17 02:10 5.2 100 6.89 5.2 0 0 1024.6 0 16.3 26.0 37.4 97.9 86.3 294.8
Melbourne Airport 17 02:10 3.2 100 6.03 3.2 7 7 1023.6 0 14.5 25.1 34.7 90.5 76.3 259.6
Mildura 17 02:10 2.5 97 5.58 2.1 6 7 1023 0 13.6 24.5 33.0 86.2 70.7 239.8
Moorabbin Airport 17 02:10 2.8 100 5.87 2.8 6 9 1023.8 0 14.2 24.9 34.2 89.1 74.5 253.1
Mortlake 17 02:00 0.7 100 5.09 0.7 7 7 1023.9 0 12.6 24.2 31.8 82.7 65.6 221.6
Mount Baw Baw 17 02:10 -1.2 100 4.46 -1.2 0 0 1013.1 0.8 11.3 23.2 29.4 76.7 57.9 194.3
Mount Buller 17 02:10 2.1 29 1.62 -14 7 9 1013.1 0 5.1 18.2 17.8 45.5 20.8 64.3
Mount Gellibrand 17 02:00 6.4 100 7.46 6.4 9 11 1023.8 0 17.5 26.6 39.2 102.7 92.9 318.0
Mount Hotham 17 02:10 -4.2 98 3.54 -4.5 0 0 1013.1 0 9.4 22.5 26.7 69.4 47.4 156.9
Mount Hotham Airport 17 02:09 -0.2 99 4.74 -0.3 0 0 1021.4 0 11.9 23.7 30.6 79.5 61.4 206.7
Mount Nowa Nowa 17 02:10 7 99 7.67 6.8 9 13 1013.1 9.4 17.9 26.3 39.4 103.2 94.2 323.0
Mount William 17 02:10 4 40 2.55 -8.4 13 13 1013.1 0 7.0 19.1 20.6 53.0 30.9 100.0
Nhill Aerodrome 17 02:10 4.6 92 6.09 3.4 15 17 1022.7 0 14.6 24.7 34.3 89.4 75.7 257.6
Omeo 17 02:10 4.3 95 6.17 3.6 0 0 1022.5 0.4 14.8 25.0 34.7 90.6 77.1 262.4
Orbost 17 02:10 8.7 99 8.56 8.5 6 7 1013.1 5.2 19.8 27.4 42.3 111.0 104.6 359.4
Port Fairy 17 02:10 5.1 100 6.85 5.1 6 9 1013.1 0 16.2 25.5 36.8 96.4 85.0 290.4
Portland Airport 17 02:10 4.3 94 6.1 3.4 9 11 1023.1 0.2 14.6 24.9 34.5 89.9 76.2 259.2
Pound Creek 17 02:10 3 98 5.83 2.7 2 4 1013.1 0.2 14.1 24.4 33.5 87.4 73.1 248.3
Puckapunyal West (Defence) 17 02:10 5.2 92 6.34 4 15 17 1013.1 0 15.1 24.6 34.6 90.6 77.9 265.5
Puckapunyal-Lyon Hill (Defence) 17 02:10 5.8 96 6.88 5.2 13 15 1013.1 0.2 16.3 25.4 36.6 95.8 84.7 289.3
Redesdale 17 02:10 3.7 94 5.86 2.9 13 13 1013.1 0 14.1 24.2 33.3 87.0 72.8 247.5
Rhyll 17 02:10 7.2 88 6.91 5.3 6 6 1013.1 0 16.3 25.0 36.1 94.5 83.5 285.5
Rutherglen 17 02:10 -0.5 99 4.64 -0.6 0 0 1013.1 0 11.6 23.3 29.9 78.0 59.8 201.2
Scoresby 17 02:10 2.6 99 5.74 2.4 0 0 1013.1 0.2 13.9 24.3 33.3 86.9 72.2 245.2
Sheoaks 17 02:10 1.1 99 5.18 0.9 9 11 1013.1 0 12.8 23.8 31.5 82.3 65.9 222.7
Shepparton 17 02:10 2.3 99 5.62 2.2 9 11 1022.4 0 13.7 24.6 33.3 86.8 71.4 242.3
Stawell 17 02:10 1.6 99 5.36 1.5 6 7 1022.1 0.2 13.1 24.3 32.5 84.6 68.5 231.7
Swan Hill 17 02:10 0.6 98 4.96 0.3 7 7 1022.8 0 12.3 24.0 31.2 81.3 63.8 215.4
Tatura 17 02:10 4 100 6.36 4 9 11 1013.1 0 15.2 25.0 35.2 92.2 79.4 270.5
Viewbank 17 02:00 3.8 100 6.28 3.8 4 6 1023.7 0 15.0 25.3 35.5 92.6 79.2 269.8
Walpeup 17 02:10 6.3 74 5.48 2 9 11 1013.1 0 13.2 22.9 30.7 80.1 65.5 222.0
Wangaratta 17 02:10 0.1 99 4.84 0 0 0 1022.4 0 12.1 23.9 30.9 80.4 62.6 210.9
Warracknabeal Airport 17 01:30 2.9 99 5.85 2.8 13 15 1023.5 0 14.1 24.8 34.0 88.8 74.1 251.8
Warragul (Nilma North) 17 02:00 4.8 100 6.71 4.8 0 0 1023.7 0 15.9 25.8 36.8 96.2 84.2 287.2
Warrnambool 17 02:10 1.2 100 5.27 1.2 17 17 1023.4 0 13.0 24.3 32.3 84.1 67.6 228.8
Westmere 17 02:10 -1.1 100 4.5 -1.1 0 0 1013.1 0 11.4 23.3 29.6 77.0 58.3 196.0
Wilsons Promontory 17 02:10 10.2 87 8.28 8.1 13 15 1023.4 0 19.1 26.8 40.8 106.9 99.5 341.8
Yanakie 17 02:10 3.3 99 6.01 3.1 0 0 1013.1 1.8 14.5 24.6 34.1 89.1 75.3 256.0
Yarram Airport 17 02:10 6.3 97 7.18 5.9 7 7 1023.8 1.4 16.9 26.1 38.1 99.7 89.1 304.6
Yarrawonga 17 02:10 0.3 100 4.95 0.3 4 4 1013.1 0 12.3 23.6 30.9 80.6 63.4 213.9

Last Refresh: 17-Jul-2020 01:46:27

The information presented on this site is sourced from the Bureau of Meteorology.  Copyright in all material sourced from the Bureau of Meteorology resides with the Commonwealth of Australia.